sensor_id;sensor_type;location;lat;lon;timestamp;pressure;altitude;pressure_sealevel;temperature
68510;BMP180;55512;50.102;19.958;2023-06-22T00:00:58;98977.40;;;23.80
68510;BMP180;55512;50.102;19.958;2023-06-22T00:03:25;98981.80;;;23.80
68510;BMP180;55512;50.102;19.958;2023-06-22T00:05:52;98980.60;;;23.80
68510;BMP180;55512;50.102;19.958;2023-06-22T00:08:18;98986.40;;;23.90
68510;BMP180;55512;50.102;19.958;2023-06-22T00:10:45;98989.40;;;23.90
68510;BMP180;55512;50.102;19.958;2023-06-22T00:13:13;98988.60;;;24.00
68510;BMP180;55512;50.102;19.958;2023-06-22T00:15:40;98988.80;;;24.08
68510;BMP180;55512;50.102;19.958;2023-06-22T00:18:08;98980.80;;;24.10
68510;BMP180;55512;50.102;19.958;2023-06-22T00:20:35;98978.20;;;24.16
68510;BMP180;55512;50.102;19.958;2023-06-22T00:23:05;98971.60;;;24.20
68510;BMP180;55512;50.102;19.958;2023-06-22T00:25:42;98962.40;;;24.20
68510;BMP180;55512;50.102;19.958;2023-06-22T00:28:08;98955.60;;;24.30
68510;BMP180;55512;50.102;19.958;2023-06-22T00:30:35;98960.00;;;24.30
68510;BMP180;55512;50.102;19.958;2023-06-22T00:33:00;98958.80;;;24.36
68510;BMP180;55512;50.102;19.958;2023-06-22T00:35:27;98948.40;;;24.40
68510;BMP180;55512;50.102;19.958;2023-06-22T00:37:57;98942.40;;;24.40
68510;BMP180;55512;50.102;19.958;2023-06-22T00:40:29;98946.00;;;24.40
68510;BMP180;55512;50.102;19.958;2023-06-22T00:42:55;98948.80;;;24.40
68510;BMP180;55512;50.102;19.958;2023-06-22T00:45:22;98945.00;;;24.40
68510;BMP180;55512;50.102;19.958;2023-06-22T00:47:53;98945.20;;;24.40
68510;BMP180;55512;50.102;19.958;2023-06-22T00:50:21;98946.80;;;24.40
68510;BMP180;55512;50.102;19.958;2023-06-22T00:52:57;98953.00;;;24.40
68510;BMP180;55512;50.102;19.958;2023-06-22T00:55:25;98948.60;;;24.42
68510;BMP180;55512;50.102;19.958;2023-06-22T00:57:54;98946.20;;;24.42
68510;BMP180;55512;50.102;19.958;2023-06-22T01:00:24;98941.80;;;24.40
68510;BMP180;55512;50.102;19.958;2023-06-22T01:02:52;98933.80;;;24.40
68510;BMP180;55512;50.102;19.958;2023-06-22T01:05:22;98934.80;;;24.40
68510;BMP180;55512;50.102;19.958;2023-06-22T01:10:51;98933.40;;;24.40
68510;BMP180;55512;50.102;19.958;2023-06-22T01:13:44;98930.60;;;24.40
68510;BMP180;55512;50.102;19.958;2023-06-22T01:16:21;98931.60;;;24.40
68510;BMP180;55512;50.102;19.958;2023-06-22T01:18:52;98937.40;;;24.40
68510;BMP180;55512;50.102;19.958;2023-06-22T01:21:20;98937.80;;;24.40
68510;BMP180;55512;50.102;19.958;2023-06-22T01:23:58;98934.60;;;24.30
68510;BMP180;55512;50.102;19.958;2023-06-22T01:29:33;98940.00;;;24.26
68510;BMP180;55512;50.102;19.958;2023-06-22T01:32:02;98933.00;;;24.20
68510;BMP180;55512;50.102;19.958;2023-06-22T01:34:30;98933.20;;;24.20
68510;BMP180;55512;50.102;19.958;2023-06-22T01:36:59;98929.60;;;24.10
68510;BMP180;55512;50.102;19.958;2023-06-22T01:39:26;98938.00;;;24.10
68510;BMP180;55512;50.102;19.958;2023-06-22T01:41:53;98946.40;;;24.10
68510;BMP180;55512;50.102;19.958;2023-06-22T01:44:19;98947.20;;;24.08
68510;BMP180;55512;50.102;19.958;2023-06-22T01:46:46;98951.40;;;24.08
68510;BMP180;55512;50.102;19.958;2023-06-22T01:49:12;98952.20;;;24.06
68510;BMP180;55512;50.102;19.958;2023-06-22T01:51:38;98952.80;;;24.04
68510;BMP180;55512;50.102;19.958;2023-06-22T01:54:05;98953.00;;;24.00
68510;BMP180;55512;50.102;19.958;2023-06-22T01:56:31;98955.80;;;24.00
68510;BMP180;55512;50.102;19.958;2023-06-22T01:59:17;98953.80;;;23.90
68510;BMP180;55512;50.102;19.958;2023-06-22T02:02:04;98949.40;;;23.78
68510;BMP180;55512;50.102;19.958;2023-06-22T02:04:50;98952.20;;;23.70
68510;BMP180;55512;50.102;19.958;2023-06-22T02:07:20;98951.80;;;23.70
68510;BMP180;55512;50.102;19.958;2023-06-22T02:09:51;98952.40;;;23.70
68510;BMP180;55512;50.102;19.958;2023-06-22T02:12:23;98952.60;;;23.70
68510;BMP180;55512;50.102;19.958;2023-06-22T02:14:51;98952.20;;;23.70
68510;BMP180;55512;50.102;19.958;2023-06-22T02:17:18;98952.40;;;23.70
68510;BMP180;55512;50.102;19.958;2023-06-22T02:19:43;98949.20;;;23.70
68510;BMP180;55512;50.102;19.958;2023-06-22T02:22:09;98950.20;;;23.70
68510;BMP180;55512;50.102;19.958;2023-06-22T02:24:34;98950.00;;;23.60
68510;BMP180;55512;50.102;19.958;2023-06-22T02:27:02;98957.20;;;23.56
68510;BMP180;55512;50.102;19.958;2023-06-22T02:29:28;98955.40;;;23.40
68510;BMP180;55512;50.102;19.958;2023-06-22T02:31:54;98959.00;;;23.40
68510;BMP180;55512;50.102;19.958;2023-06-22T02:34:23;98964.00;;;23.30
68510;BMP180;55512;50.102;19.958;2023-06-22T02:36:49;98966.20;;;23.20
68510;BMP180;55512;50.102;19.958;2023-06-22T02:39:23;98965.60;;;23.20
68510;BMP180;55512;50.102;19.958;2023-06-22T02:41:54;98967.00;;;23.10
68510;BMP180;55512;50.102;19.958;2023-06-22T02:44:20;98970.00;;;23.02
68510;BMP180;55512;50.102;19.958;2023-06-22T02:46:47;98971.40;;;23.00
68510;BMP180;55512;50.102;19.958;2023-06-22T02:49:13;98972.40;;;22.90
68510;BMP180;55512;50.102;19.958;2023-06-22T02:51:46;98975.00;;;22.90
68510;BMP180;55512;50.102;19.958;2023-06-22T02:54:12;98966.80;;;22.80
68510;BMP180;55512;50.102;19.958;2023-06-22T02:56:37;98966.60;;;22.80
68510;BMP180;55512;50.102;19.958;2023-06-22T02:59:03;98972.20;;;22.70
68510;BMP180;55512;50.102;19.958;2023-06-22T03:01:29;98974.00;;;22.68
68510;BMP180;55512;50.102;19.958;2023-06-22T03:03:58;98970.60;;;22.60
68510;BMP180;55512;50.102;19.958;2023-06-22T03:06:24;98973.60;;;22.60
68510;BMP180;55512;50.102;19.958;2023-06-22T03:09:03;98976.00;;;22.60
68510;BMP180;55512;50.102;19.958;2023-06-22T03:11:31;98972.80;;;22.60
68510;BMP180;55512;50.102;19.958;2023-06-22T03:13:56;98971.60;;;22.60
68510;BMP180;55512;50.102;19.958;2023-06-22T03:16:22;98973.00;;;22.60
68510;BMP180;55512;50.102;19.958;2023-06-22T03:18:47;98976.40;;;22.60
68510;BMP180;55512;50.102;19.958;2023-06-22T03:21:13;98980.00;;;22.60
68510;BMP180;55512;50.102;19.958;2023-06-22T03:23:41;98985.20;;;22.58
68510;BMP180;55512;50.102;19.958;2023-06-22T03:26:08;98990.40;;;22.50
68510;BMP180;55512;50.102;19.958;2023-06-22T03:28:33;98993.60;;;22.40
68510;BMP180;55512;50.102;19.958;2023-06-22T03:30:59;98998.20;;;22.40
68510;BMP180;55512;50.102;19.958;2023-06-22T03:33:24;98994.40;;;22.34
68510;BMP180;55512;50.102;19.958;2023-06-22T03:35:49;98991.60;;;22.30
68510;BMP180;55512;50.102;19.958;2023-06-22T03:38:16;98992.40;;;22.30
68510;BMP180;55512;50.102;19.958;2023-06-22T03:40:42;98993.20;;;22.30
68510;BMP180;55512;50.102;19.958;2023-06-22T03:43:07;98993.40;;;22.28
68510;BMP180;55512;50.102;19.958;2023-06-22T03:45:33;98992.00;;;22.30
68510;BMP180;55512;50.102;19.958;2023-06-22T03:47:59;98991.20;;;22.30
68510;BMP180;55512;50.102;19.958;2023-06-22T03:50:25;98990.00;;;22.36
68510;BMP180;55512;50.102;19.958;2023-06-22T03:52:50;98995.60;;;22.32
68510;BMP180;55512;50.102;19.958;2023-06-22T03:55:19;98999.60;;;22.30
68510;BMP180;55512;50.102;19.958;2023-06-22T03:57:45;99002.60;;;22.20
68510;BMP180;55512;50.102;19.958;2023-06-22T04:00:11;99010.00;;;22.20
68510;BMP180;55512;50.102;19.958;2023-06-22T04:02:37;99006.00;;;22.10
68510;BMP180;55512;50.102;19.958;2023-06-22T04:05:02;99011.60;;;22.14
68510;BMP180;55512;50.102;19.958;2023-06-22T04:07:28;99013.20;;;22.10
68510;BMP180;55512;50.102;19.958;2023-06-22T04:09:53;99014.20;;;22.10
68510;BMP180;55512;50.102;19.958;2023-06-22T04:12:18;99013.00;;;22.10
68510;BMP180;55512;50.102;19.958;2023-06-22T04:14:44;99015.80;;;22.20
68510;BMP180;55512;50.102;19.958;2023-06-22T04:17:09;99016.20;;;22.30
68510;BMP180;55512;50.102;19.958;2023-06-22T04:19:35;99014.80;;;22.30
68510;BMP180;55512;50.102;19.958;2023-06-22T04:22:00;99013.00;;;22.40
68510;BMP180;55512;50.102;19.958;2023-06-22T04:24:26;99013.80;;;22.40
68510;BMP180;55512;50.102;19.958;2023-06-22T04:26:51;99014.20;;;22.50
68510;BMP180;55512;50.102;19.958;2023-06-22T04:29:19;99023.40;;;22.50
68510;BMP180;55512;50.102;19.958;2023-06-22T04:31:45;99030.00;;;22.60
68510;BMP180;55512;50.102;19.958;2023-06-22T04:34:16;99022.60;;;22.60
68510;BMP180;55512;50.102;19.958;2023-06-22T04:36:42;99029.00;;;22.60
68510;BMP180;55512;50.102;19.958;2023-06-22T04:39:10;99031.80;;;22.60
68510;BMP180;55512;50.102;19.958;2023-06-22T04:41:40;99046.00;;;22.60
68510;BMP180;55512;50.102;19.958;2023-06-22T04:44:10;99043.60;;;22.60
68510;BMP180;55512;50.102;19.958;2023-06-22T04:46:37;99045.20;;;22.60
68510;BMP180;55512;50.102;19.958;2023-06-22T04:49:07;99045.40;;;22.70
68510;BMP180;55512;50.102;19.958;2023-06-22T04:51:44;99038.20;;;22.70
68510;BMP180;55512;50.102;19.958;2023-06-22T04:54:10;99036.80;;;22.68
68510;BMP180;55512;50.102;19.958;2023-06-22T04:56:35;99040.60;;;22.70
68510;BMP180;55512;50.102;19.958;2023-06-22T04:59:01;99037.00;;;22.72
68510;BMP180;55512;50.102;19.958;2023-06-22T05:01:28;99030.40;;;22.80
68510;BMP180;55512;50.102;19.958;2023-06-22T05:03:56;99028.80;;;22.90
68510;BMP180;55512;50.102;19.958;2023-06-22T05:06:25;99024.40;;;23.00
68510;BMP180;55512;50.102;19.958;2023-06-22T05:08:53;99028.40;;;23.10
68510;BMP180;55512;50.102;19.958;2023-06-22T05:11:24;99032.80;;;23.20
68510;BMP180;55512;50.102;19.958;2023-06-22T05:13:50;99042.20;;;23.30
68510;BMP180;55512;50.102;19.958;2023-06-22T05:16:15;99052.00;;;23.40
68510;BMP180;55512;50.102;19.958;2023-06-22T05:18:41;99058.20;;;23.50
68510;BMP180;55512;50.102;19.958;2023-06-22T05:21:07;99052.40;;;23.52
68510;BMP180;55512;50.102;19.958;2023-06-22T05:23:32;99055.20;;;23.60
68510;BMP180;55512;50.102;19.958;2023-06-22T05:25:57;99059.40;;;23.70
68510;BMP180;55512;50.102;19.958;2023-06-22T05:28:23;99053.20;;;23.80
68510;BMP180;55512;50.102;19.958;2023-06-22T05:30:48;99050.00;;;23.90
68510;BMP180;55512;50.102;19.958;2023-06-22T05:33:14;99057.00;;;24.00
68510;BMP180;55512;50.102;19.958;2023-06-22T05:35:39;99056.00;;;24.10
68510;BMP180;55512;50.102;19.958;2023-06-22T05:38:05;99057.80;;;24.20
68510;BMP180;55512;50.102;19.958;2023-06-22T05:40:30;99062.60;;;24.30
68510;BMP180;55512;50.102;19.958;2023-06-22T05:42:55;99065.20;;;24.30
68510;BMP180;55512;50.102;19.958;2023-06-22T05:45:21;99068.00;;;24.40
68510;BMP180;55512;50.102;19.958;2023-06-22T05:47:46;99067.40;;;24.40
68510;BMP180;55512;50.102;19.958;2023-06-22T05:50:14;99068.40;;;24.50
68510;BMP180;55512;50.102;19.958;2023-06-22T05:52:40;99072.00;;;24.52
68510;BMP180;55512;50.102;19.958;2023-06-22T05:55:05;99072.80;;;24.60
68510;BMP180;55512;50.102;19.958;2023-06-22T05:57:31;99072.00;;;24.70
68510;BMP180;55512;50.102;19.958;2023-06-22T05:59:56;99073.60;;;24.70
68510;BMP180;55512;50.102;19.958;2023-06-22T06:02:22;99074.60;;;24.74
68510;BMP180;55512;50.102;19.958;2023-06-22T06:04:47;99077.00;;;24.80
68510;BMP180;55512;50.102;19.958;2023-06-22T06:07:12;99084.20;;;24.80
68510;BMP180;55512;50.102;19.958;2023-06-22T06:09:38;99088.80;;;24.80
68510;BMP180;55512;50.102;19.958;2023-06-22T06:12:04;99091.20;;;24.90
68510;BMP180;55512;50.102;19.958;2023-06-22T06:14:29;99098.40;;;24.94
68510;BMP180;55512;50.102;19.958;2023-06-22T06:16:55;99095.40;;;25.00
68510;BMP180;55512;50.102;19.958;2023-06-22T06:19:20;99102.00;;;25.10
68510;BMP180;55512;50.102;19.958;2023-06-22T06:21:46;99096.00;;;25.10
68510;BMP180;55512;50.102;19.958;2023-06-22T06:24:11;99098.60;;;25.12
68510;BMP180;55512;50.102;19.958;2023-06-22T06:26:37;99098.40;;;25.20
68510;BMP180;55512;50.102;19.958;2023-06-22T06:29:02;99103.00;;;25.30
68510;BMP180;55512;50.102;19.958;2023-06-22T06:31:28;99099.20;;;25.30
68510;BMP180;55512;50.102;19.958;2023-06-22T06:33:54;99104.40;;;25.32
68510;BMP180;55512;50.102;19.958;2023-06-22T06:36:20;99097.00;;;25.40
68510;BMP180;55512;50.102;19.958;2023-06-22T06:38:46;99103.20;;;25.50
68510;BMP180;55512;50.102;19.958;2023-06-22T06:41:15;99102.60;;;25.50
68510;BMP180;55512;50.102;19.958;2023-06-22T06:43:40;99105.20;;;25.42
68510;BMP180;55512;50.102;19.958;2023-06-22T06:46:08;99099.80;;;25.38
68510;BMP180;55512;50.102;19.958;2023-06-22T06:48:33;99102.60;;;25.22
68510;BMP180;55512;50.102;19.958;2023-06-22T06:50:59;99105.20;;;25.30
68510;BMP180;55512;50.102;19.958;2023-06-22T06:53:24;99103.80;;;25.42
68510;BMP180;55512;50.102;19.958;2023-06-22T06:55:49;99102.00;;;25.56
68510;BMP180;55512;50.102;19.958;2023-06-22T06:58:15;99106.20;;;25.60
68510;BMP180;55512;50.102;19.958;2023-06-22T07:00:41;99105.40;;;25.70
68510;BMP180;55512;50.102;19.958;2023-06-22T07:03:08;99110.00;;;25.80
68510;BMP180;55512;50.102;19.958;2023-06-22T07:05:34;99114.20;;;25.90
68510;BMP180;55512;50.102;19.958;2023-06-22T07:08:01;99101.20;;;25.90
68510;BMP180;55512;50.102;19.958;2023-06-22T07:10:27;99098.20;;;26.00
68510;BMP180;55512;50.102;19.958;2023-06-22T07:12:53;99096.20;;;26.08
68510;BMP180;55512;50.102;19.958;2023-06-22T07:15:18;99100.20;;;26.10
68510;BMP180;55512;50.102;19.958;2023-06-22T07:17:44;99095.40;;;26.10
68510;BMP180;55512;50.102;19.958;2023-06-22T07:20:12;99094.60;;;26.20
68510;BMP180;55512;50.102;19.958;2023-06-22T07:22:43;99096.80;;;26.30
68510;BMP180;55512;50.102;19.958;2023-06-22T07:25:09;99093.20;;;26.30
68510;BMP180;55512;50.102;19.958;2023-06-22T07:27:59;99092.60;;;26.30
68510;BMP180;55512;50.102;19.958;2023-06-22T07:30:25;99091.40;;;26.40
68510;BMP180;55512;50.102;19.958;2023-06-22T07:32:50;99088.80;;;26.40
68510;BMP180;55512;50.102;19.958;2023-06-22T07:35:16;99085.40;;;26.44
68510;BMP180;55512;50.102;19.958;2023-06-22T07:37:42;99087.40;;;26.50
68510;BMP180;55512;50.102;19.958;2023-06-22T07:40:08;99087.60;;;26.60
68510;BMP180;55512;50.102;19.958;2023-06-22T07:42:35;99092.40;;;26.60
68510;BMP180;55512;50.102;19.958;2023-06-22T07:45:02;99090.40;;;26.60
68510;BMP180;55512;50.102;19.958;2023-06-22T07:47:28;99081.20;;;26.60
68510;BMP180;55512;50.102;19.958;2023-06-22T07:49:55;99080.00;;;26.50
68510;BMP180;55512;50.102;19.958;2023-06-22T07:52:23;99078.40;;;26.50
68510;BMP180;55512;50.102;19.958;2023-06-22T07:54:48;99086.60;;;26.40
68510;BMP180;55512;50.102;19.958;2023-06-22T07:57:14;99090.00;;;26.40
68510;BMP180;55512;50.102;19.958;2023-06-22T07:59:39;99097.20;;;26.50
68510;BMP180;55512;50.102;19.958;2023-06-22T08:02:05;99086.80;;;26.50
68510;BMP180;55512;50.102;19.958;2023-06-22T08:04:30;99097.80;;;26.50
68510;BMP180;55512;50.102;19.958;2023-06-22T08:06:59;99093.60;;;26.50
68510;BMP180;55512;50.102;19.958;2023-06-22T08:09:24;99098.40;;;26.52
68510;BMP180;55512;50.102;19.958;2023-06-22T08:11:50;99101.80;;;26.50
68510;BMP180;55512;50.102;19.958;2023-06-22T08:14:15;99111.00;;;26.60
68510;BMP180;55512;50.102;19.958;2023-06-22T08:16:42;99111.80;;;26.72
68510;BMP180;55512;50.102;19.958;2023-06-22T08:19:07;99112.20;;;26.80
68510;BMP180;55512;50.102;19.958;2023-06-22T08:21:32;99116.80;;;27.00
68510;BMP180;55512;50.102;19.958;2023-06-22T08:23:58;99114.20;;;27.00
68510;BMP180;55512;50.102;19.958;2023-06-22T08:26:23;99113.60;;;27.00
68510;BMP180;55512;50.102;19.958;2023-06-22T08:28:49;99126.80;;;27.02
68510;BMP180;55512;50.102;19.958;2023-06-22T08:31:14;99120.00;;;27.10
68510;BMP180;55512;50.102;19.958;2023-06-22T08:33:40;99128.80;;;27.20
68510;BMP180;55512;50.102;19.958;2023-06-22T08:36:06;99127.80;;;27.20
68510;BMP180;55512;50.102;19.958;2023-06-22T08:38:33;99126.80;;;27.20
68510;BMP180;55512;50.102;19.958;2023-06-22T08:40:58;99127.60;;;27.30
68510;BMP180;55512;50.102;19.958;2023-06-22T08:43:25;99132.60;;;27.40
68510;BMP180;55512;50.102;19.958;2023-06-22T08:45:51;99126.00;;;27.30
68510;BMP180;55512;50.102;19.958;2023-06-22T08:48:16;99126.40;;;27.30
68510;BMP180;55512;50.102;19.958;2023-06-22T08:50:41;99121.60;;;27.30
68510;BMP180;55512;50.102;19.958;2023-06-22T08:53:07;99122.80;;;27.20
68510;BMP180;55512;50.102;19.958;2023-06-22T08:55:33;99120.40;;;27.30
68510;BMP180;55512;50.102;19.958;2023-06-22T08:57:59;99132.80;;;27.20
68510;BMP180;55512;50.102;19.958;2023-06-22T09:00:24;99131.00;;;27.28
68510;BMP180;55512;50.102;19.958;2023-06-22T09:02:50;99130.60;;;27.28
68510;BMP180;55512;50.102;19.958;2023-06-22T09:05:16;99128.80;;;27.20
68510;BMP180;55512;50.102;19.958;2023-06-22T09:07:41;99126.60;;;27.30
68510;BMP180;55512;50.102;19.958;2023-06-22T09:10:08;99136.20;;;27.30
68510;BMP180;55512;50.102;19.958;2023-06-22T09:12:34;99128.80;;;27.30
68510;BMP180;55512;50.102;19.958;2023-06-22T09:15:00;99123.60;;;27.30
68510;BMP180;55512;50.102;19.958;2023-06-22T09:17:26;99129.60;;;27.30
68510;BMP180;55512;50.102;19.958;2023-06-22T09:19:52;99130.60;;;27.30
68510;BMP180;55512;50.102;19.958;2023-06-22T09:22:18;99121.40;;;27.30
68510;BMP180;55512;50.102;19.958;2023-06-22T09:24:43;99118.40;;;27.20
68510;BMP180;55512;50.102;19.958;2023-06-22T09:27:09;99126.80;;;27.20
68510;BMP180;55512;50.102;19.958;2023-06-22T09:29:34;99120.00;;;27.30
68510;BMP180;55512;50.102;19.958;2023-06-22T09:32:00;99126.40;;;27.32
68510;BMP180;55512;50.102;19.958;2023-06-22T09:34:27;99123.00;;;27.40
68510;BMP180;55512;50.102;19.958;2023-06-22T09:36:52;99123.40;;;27.40
68510;BMP180;55512;50.102;19.958;2023-06-22T09:39:18;99117.20;;;27.50
68510;BMP180;55512;50.102;19.958;2023-06-22T09:41:44;99127.20;;;27.48
68510;BMP180;55512;50.102;19.958;2023-06-22T09:44:09;99119.60;;;27.50
68510;BMP180;55512;50.102;19.958;2023-06-22T09:46:38;99113.80;;;27.40
68510;BMP180;55512;50.102;19.958;2023-06-22T09:49:03;99114.40;;;27.40
68510;BMP180;55512;50.102;19.958;2023-06-22T09:51:29;99124.40;;;27.44
68510;BMP180;55512;50.102;19.958;2023-06-22T09:53:54;99125.20;;;27.52
68510;BMP180;55512;50.102;19.958;2023-06-22T09:56:20;99122.20;;;27.60
68510;BMP180;55512;50.102;19.958;2023-06-22T09:58:47;99112.00;;;27.60
68510;BMP180;55512;50.102;19.958;2023-06-22T10:01:13;99116.00;;;27.70
68510;BMP180;55512;50.102;19.958;2023-06-22T10:03:41;99125.60;;;27.80
68510;BMP180;55512;50.102;19.958;2023-06-22T10:06:08;99118.80;;;27.82
68510;BMP180;55512;50.102;19.958;2023-06-22T10:08:35;99122.00;;;27.90
68510;BMP180;55512;50.102;19.958;2023-06-22T10:11:00;99122.60;;;27.90
68510;BMP180;55512;50.102;19.958;2023-06-22T10:13:26;99116.20;;;27.90
68510;BMP180;55512;50.102;19.958;2023-06-22T10:15:52;99120.20;;;28.00
68510;BMP180;55512;50.102;19.958;2023-06-22T10:18:18;99108.00;;;28.00
68510;BMP180;55512;50.102;19.958;2023-06-22T10:20:48;99103.20;;;28.00
68510;BMP180;55512;50.102;19.958;2023-06-22T10:23:19;99104.80;;;28.10
68510;BMP180;55512;50.102;19.958;2023-06-22T10:25:45;99103.80;;;28.00
68510;BMP180;55512;50.102;19.958;2023-06-22T10:28:12;99105.40;;;28.10
68510;BMP180;55512;50.102;19.958;2023-06-22T10:30:39;99110.80;;;28.20
68510;BMP180;55512;50.102;19.958;2023-06-22T10:33:12;99116.60;;;28.26
68510;BMP180;55512;50.102;19.958;2023-06-22T10:35:38;99110.80;;;28.20
68510;BMP180;55512;50.102;19.958;2023-06-22T10:38:04;99115.00;;;28.20
68510;BMP180;55512;50.102;19.958;2023-06-22T10:40:30;99109.00;;;28.20
68510;BMP180;55512;50.102;19.958;2023-06-22T10:42:56;99100.60;;;28.34
68510;BMP180;55512;50.102;19.958;2023-06-22T10:45:21;99098.80;;;28.46
68510;BMP180;55512;50.102;19.958;2023-06-22T10:47:47;99098.00;;;28.60
68510;BMP180;55512;50.102;19.958;2023-06-22T10:50:13;99095.40;;;28.62
68510;BMP180;55512;50.102;19.958;2023-06-22T10:52:39;99094.60;;;28.70
68510;BMP180;55512;50.102;19.958;2023-06-22T10:55:07;99091.40;;;28.70
68510;BMP180;55512;50.102;19.958;2023-06-22T10:57:33;99080.20;;;28.74
68510;BMP180;55512;50.102;19.958;2023-06-22T10:59:59;99074.20;;;28.80
68510;BMP180;55512;50.102;19.958;2023-06-22T11:02:24;99068.20;;;28.90
68510;BMP180;55512;50.102;19.958;2023-06-22T11:04:50;99065.60;;;29.00
68510;BMP180;55512;50.102;19.958;2023-06-22T11:07:16;99065.40;;;29.10
68510;BMP180;55512;50.102;19.958;2023-06-22T11:09:43;99067.00;;;29.20
68510;BMP180;55512;50.102;19.958;2023-06-22T11:12:09;99074.40;;;29.30
68510;BMP180;55512;50.102;19.958;2023-06-22T11:14:34;99082.40;;;29.36
68510;BMP180;55512;50.102;19.958;2023-06-22T11:17:00;99075.00;;;29.34
68510;BMP180;55512;50.102;19.958;2023-06-22T11:19:25;99069.80;;;29.30
68510;BMP180;55512;50.102;19.958;2023-06-22T11:21:50;99062.40;;;29.40
68510;BMP180;55512;50.102;19.958;2023-06-22T11:24:17;99057.60;;;29.50
68510;BMP180;55512;50.102;19.958;2023-06-22T11:26:43;99060.40;;;29.60
68510;BMP180;55512;50.102;19.958;2023-06-22T11:29:08;99058.20;;;29.78
68510;BMP180;55512;50.102;19.958;2023-06-22T11:31:35;99054.80;;;29.90
68510;BMP180;55512;50.102;19.958;2023-06-22T11:34:01;99059.40;;;29.90
68510;BMP180;55512;50.102;19.958;2023-06-22T11:36:28;99056.40;;;30.00
68510;BMP180;55512;50.102;19.958;2023-06-22T11:38:54;99059.80;;;30.10
68510;BMP180;55512;50.102;19.958;2023-06-22T11:41:20;99057.80;;;30.20
68510;BMP180;55512;50.102;19.958;2023-06-22T11:43:45;99048.20;;;30.30
68510;BMP180;55512;50.102;19.958;2023-06-22T11:46:11;99047.00;;;30.30
68510;BMP180;55512;50.102;19.958;2023-06-22T11:48:37;99054.60;;;30.30
68510;BMP180;55512;50.102;19.958;2023-06-22T11:51:03;99042.80;;;30.40
68510;BMP180;55512;50.102;19.958;2023-06-22T11:53:29;99046.00;;;30.40
68510;BMP180;55512;50.102;19.958;2023-06-22T11:55:54;99043.40;;;30.40
68510;BMP180;55512;50.102;19.958;2023-06-22T11:58:21;99044.60;;;30.40
68510;BMP180;55512;50.102;19.958;2023-06-22T12:00:47;99038.80;;;30.50
68510;BMP180;55512;50.102;19.958;2023-06-22T12:03:13;99042.20;;;30.60
68510;BMP180;55512;50.102;19.958;2023-06-22T12:05:40;99031.60;;;30.72
68510;BMP180;55512;50.102;19.958;2023-06-22T12:08:06;99033.60;;;30.60
68510;BMP180;55512;50.102;19.958;2023-06-22T12:10:32;99033.80;;;30.50
68510;BMP180;55512;50.102;19.958;2023-06-22T12:12:57;99024.60;;;30.70
68510;BMP180;55512;50.102;19.958;2023-06-22T12:15:25;99032.80;;;30.78
68510;BMP180;55512;50.102;19.958;2023-06-22T12:17:51;99027.20;;;30.80
68510;BMP180;55512;50.102;19.958;2023-06-22T12:20:17;99034.40;;;31.00
68510;BMP180;55512;50.102;19.958;2023-06-22T12:22:43;99030.00;;;31.30
68510;BMP180;55512;50.102;19.958;2023-06-22T12:25:09;99032.20;;;31.50
68510;BMP180;55512;50.102;19.958;2023-06-22T12:27:35;99039.60;;;31.50
68510;BMP180;55512;50.102;19.958;2023-06-22T12:30:01;99038.60;;;31.60
68510;BMP180;55512;50.102;19.958;2023-06-22T12:32:27;99029.20;;;31.70
68510;BMP180;55512;50.102;19.958;2023-06-22T12:34:53;99024.00;;;31.80
68510;BMP180;55512;50.102;19.958;2023-06-22T12:37:19;99022.00;;;31.90
68510;BMP180;55512;50.102;19.958;2023-06-22T12:39:44;99018.20;;;31.88
68510;BMP180;55512;50.102;19.958;2023-06-22T12:42:10;99021.20;;;32.00
68510;BMP180;55512;50.102;19.958;2023-06-22T12:44:38;99027.80;;;32.10
68510;BMP180;55512;50.102;19.958;2023-06-22T12:47:05;99020.20;;;32.22
68510;BMP180;55512;50.102;19.958;2023-06-22T12:49:30;99018.40;;;32.48
68510;BMP180;55512;50.102;19.958;2023-06-22T12:51:56;99015.60;;;32.50
68510;BMP180;55512;50.102;19.958;2023-06-22T12:54:21;99010.40;;;32.40
68510;BMP180;55512;50.102;19.958;2023-06-22T12:56:47;99001.20;;;32.40
68510;BMP180;55512;50.102;19.958;2023-06-22T12:59:12;98993.80;;;32.50
68510;BMP180;55512;50.102;19.958;2023-06-22T13:01:38;98986.60;;;32.70
68510;BMP180;55512;50.102;19.958;2023-06-22T13:04:04;98997.40;;;32.88
68510;BMP180;55512;50.102;19.958;2023-06-22T13:06:30;98995.80;;;33.00
68510;BMP180;55512;50.102;19.958;2023-06-22T13:08:55;98992.80;;;33.20
68510;BMP180;55512;50.102;19.958;2023-06-22T13:11:20;98994.20;;;33.30
68510;BMP180;55512;50.102;19.958;2023-06-22T13:13:46;98988.20;;;33.48
68510;BMP180;55512;50.102;19.958;2023-06-22T13:16:12;98988.00;;;33.50
68510;BMP180;55512;50.102;19.958;2023-06-22T13:18:38;98987.20;;;33.72
68510;BMP180;55512;50.102;19.958;2023-06-22T13:21:04;98989.60;;;34.00
68510;BMP180;55512;50.102;19.958;2023-06-22T13:23:30;98992.00;;;34.02
68510;BMP180;55512;50.102;19.958;2023-06-22T13:25:56;98993.00;;;34.10
68510;BMP180;55512;50.102;19.958;2023-06-22T13:28:21;98979.40;;;34.00
68510;BMP180;55512;50.102;19.958;2023-06-22T13:30:47;98981.20;;;34.00
68510;BMP180;55512;50.102;19.958;2023-06-22T13:33:14;98986.60;;;33.90
68510;BMP180;55512;50.102;19.958;2023-06-22T13:35:40;98979.00;;;34.00
68510;BMP180;55512;50.102;19.958;2023-06-22T13:38:11;98983.20;;;34.20
68510;BMP180;55512;50.102;19.958;2023-06-22T13:40:37;98982.20;;;34.10
68510;BMP180;55512;50.102;19.958;2023-06-22T13:43:04;98982.60;;;34.10
68510;BMP180;55512;50.102;19.958;2023-06-22T13:45:30;98985.00;;;34.10
68510;BMP180;55512;50.102;19.958;2023-06-22T13:47:56;98979.60;;;34.08
68510;BMP180;55512;50.102;19.958;2023-06-22T13:50:22;98979.60;;;33.80
68510;BMP180;55512;50.102;19.958;2023-06-22T13:52:47;98976.00;;;33.70
68510;BMP180;55512;50.102;19.958;2023-06-22T13:55:13;98973.20;;;33.66
68510;BMP180;55512;50.102;19.958;2023-06-22T13:57:40;98967.60;;;33.70
68510;BMP180;55512;50.102;19.958;2023-06-22T14:00:07;98969.60;;;33.92